Time;durP1;ratioP1;P1;durP2;ratioP2;P2;SDS_P1;SDS_P2;PMS_P1;PMS_P2;Temp;Humidity;BMP_temperature;BMP_pressure;BME280_temperature;BME280_humidity;BME280_pressure;Samples;Min_cycle;Max_cycle;Signal;HPM_P1;HPM_P2
2023/10/18 00:00:25;;;;;;;21.37;13.27;;;5.40;99.90;;;-141.84;92.34;21494.97;5023256;28;20712;-67
2023/10/18 00:02:54;;;;;;;15.73;12.43;;;5.30;99.90;;;-141.84;92.49;21787.75;5023340;28;20294;-65
2023/10/18 00:05:25;;;;;;;15.83;12.63;;;5.30;99.90;;;-141.84;92.67;22379.53;5015683;28;20321;-65
2023/10/18 00:07:57;;;;;;;17.70;13.33;;;5.30;99.90;;;-141.84;92.76;23148.34;5022762;28;20755;-66
2023/10/18 00:10:25;;;;;;;17.80;12.93;;;5.30;99.90;;;-141.84;92.81;23233.75;5023042;28;20238;-64
2023/10/18 00:12:55;;;;;;;17.80;13.40;;;5.30;99.90;;;-141.84;92.81;23136.13;5022559;28;20309;-64
2023/10/18 00:15:24;;;;;;;14.97;11.97;;;5.30;99.90;;;-141.84;92.65;22542.22;5015478;28;20234;-66
2023/10/18 00:17:52;;;;;;;16.33;12.77;;;5.30;99.90;;;-141.84;92.44;22369.34;5024081;28;20260;-65
2023/10/18 00:20:23;;;;;;;16.90;12.43;;;5.30;99.90;;;-141.84;92.62;22365.28;5022955;28;20381;-65
2023/10/18 00:22:53;;;;;;;15.37;12.90;;;5.20;99.90;;;-141.84;92.55;22452.72;5022655;28;20229;-64
2023/10/18 00:25:23;;;;;;;18.73;13.50;;;5.20;99.90;;;-141.84;92.48;22503.56;5011894;28;20229;-66
2023/10/18 00:27:51;;;;;;;14.53;12.13;;;5.20;99.90;;;-141.84;92.39;22125.31;5022529;28;20233;-65
2023/10/18 00:30:19;;;;;;;17.77;13.13;;;5.20;99.90;;;-141.84;92.28;21850.78;5022311;28;20218;-66
2023/10/18 00:32:48;;;;;;;18.10;13.27;;;5.20;99.90;;;-141.84;92.23;21507.16;5022977;28;20279;-66
2023/10/18 00:35:20;;;;;;;17.93;13.10;;;5.20;99.90;;;-141.84;92.39;21649.50;5015489;28;20236;-66
2023/10/18 00:37:54;;;;;;;14.93;12.37;;;5.10;99.90;;;-141.84;92.34;21686.09;5022664;28;20236;-66
2023/10/18 00:40:34;;;;;;;18.83;12.77;;;5.10;99.90;;;-141.84;91.84;21206.25;5020484;28;20651;-65
2023/10/18 00:43:10;;;;;;;16.50;13.00;;;5.20;99.90;;;-141.84;91.30;20460.19;5002955;28;20229;-65
2023/10/18 00:45:43;;;;;;;16.60;13.07;;;5.20;99.90;;;-141.84;91.60;20441.88;5002831;28;20242;-65
2023/10/18 00:48:13;;;;;;;19.30;13.07;;;5.10;99.90;;;-141.84;91.81;20653.28;5003082;28;20719;-65
2023/10/18 00:50:45;;;;;;;16.30;12.90;;;5.00;99.90;;;-141.84;91.90;20836.25;5003326;28;20300;-66
2023/10/18 00:53:19;;;;;;;14.17;12.47;;;5.00;99.90;;;-141.84;92.07;21175.75;4994925;28;20715;-65
2023/10/18 00:55:52;;;;;;;17.40;12.97;;;5.00;99.90;;;-141.84;92.17;21513.25;5017891;28;20240;-65
2023/10/18 00:58:23;;;;;;;16.03;12.83;;;5.00;99.90;;;-141.84;91.82;21145.25;5022601;28;20322;-65
2023/10/18 01:00:52;;;;;;;16.40;12.50;;;5.00;99.90;;;-141.84;91.69;20616.69;5022474;28;20226;-65
2023/10/18 01:03:29;;;;;;;17.07;12.80;;;5.00;99.90;;;-141.84;91.78;20502.88;5014720;28;20692;-65
2023/10/18 01:06:04;;;;;;;17.30;12.80;;;4.90;99.90;;;-141.84;91.52;20511.00;5002795;28;20217;-66
2023/10/18 01:08:34;;;;;;;14.33;11.97;;;4.90;99.90;;;-141.84;91.68;20641.09;5003255;28;20735;-66
2023/10/18 01:11:06;;;;;;;15.27;12.70;;;4.90;99.90;;;-141.84;91.62;20622.81;5002450;28;20262;-65
2023/10/18 01:13:37;;;;;;;15.07;12.60;;;4.80;99.90;;;-141.84;91.72;20695.97;5003711;28;20241;-65
2023/10/18 01:16:13;;;;;;;15.17;12.00;;;4.80;99.90;;;-141.84;91.85;20805.75;5022171;28;20311;-67
2023/10/18 01:18:43;;;;;;;14.73;11.87;;;4.80;99.90;;;-141.84;91.83;20988.72;5002662;28;20260;-66
2023/10/18 01:21:18;;;;;;;14.57;11.90;;;4.70;99.90;;;-141.84;92.09;21362.81;5006045;28;20678;-66
2023/10/18 01:23:53;;;;;;;14.83;12.37;;;4.70;99.90;;;-141.84;92.17;21535.63;5022785;28;20682;-65
2023/10/18 01:26:25;;;;;;;16.70;12.00;;;4.70;99.90;;;-141.84;92.19;22188.34;5023158;28;20248;-66
2023/10/18 01:28:57;;;;;;;16.97;12.83;;;4.60;99.90;;;-141.84;91.55;20980.59;5026108;28;20243;-66
2023/10/18 01:31:25;;;;;;;17.07;12.90;;;4.80;99.90;;;-141.84;90.98;20311.78;5018225;28;20245;-66
2023/10/18 01:33:54;;;;;;;15.70;12.47;;;4.80;99.90;;;-141.84;90.37;19787.41;5025593;28;20319;-66
2023/10/18 01:36:24;;;;;;;15.47;12.10;;;4.90;99.90;;;-141.84;90.00;19653.28;5026145;28;20228;-65
2023/10/18 01:38:54;;;;;;;13.40;11.77;;;4.90;99.90;;;-141.84;89.25;19517.13;5026203;28;20244;-66
2023/10/18 01:41:28;;;;;;;15.13;12.03;;;4.90;99.90;;;-141.84;88.76;19450.06;5018363;28;20253;-65
2023/10/18 01:44:06;;;;;;;13.97;11.60;;;5.00;99.90;;;-141.84;88.77;19380.97;5025897;28;20249;-65
2023/10/18 01:46:36;;;;;;;14.60;11.53;;;4.90;99.90;;;-141.84;89.28;19446.00;5025466;28;20232;-66
2023/10/18 01:49:06;;;;;;;13.10;10.97;;;4.70;99.90;;;-141.84;89.50;19468.34;5024446;28;20228;-65
2023/10/18 01:51:35;;;;;;;14.20;12.03;;;4.90;99.90;;;-141.84;89.86;19590.28;5025850;28;20610;-66
2023/10/18 01:54:12;;;;;;;17.37;12.13;;;4.70;99.90;;;-141.84;90.12;19612.63;5024885;28;20205;-65
2023/10/18 01:56:46;;;;;;;15.30;12.43;;;4.60;99.90;;;-141.84;90.03;19645.16;5024570;28;20624;-65
2023/10/18 01:59:17;;;;;;;16.93;11.67;;;4.60;99.90;;;-141.84;90.26;19734.56;5017725;28;20224;-65
2023/10/18 02:01:51;;;;;;;18.27;13.10;;;4.60;99.90;;;-141.84;90.04;19582.16;5025152;28;20283;-65
2023/10/18 02:04:25;;;;;;;16.10;12.00;;;4.60;99.90;;;-141.84;89.99;19590.28;5024880;28;20271;-65
2023/10/18 02:07:17;;;;;;;16.30;12.53;;;4.50;99.90;;;-141.84;90.32;19671.56;5017875;28;20237;-65
2023/10/18 02:09:48;;;;;;;15.57;12.70;;;4.50;99.90;;;-141.84;90.40;19667.50;5025536;28;20237;-66
2023/10/18 02:12:20;;;;;;;15.40;11.93;;;4.50;99.90;;;-141.84;90.60;19775.22;5025547;28;20302;-66
2023/10/18 02:14:50;;;;;;;14.10;12.40;;;4.40;99.90;;;-141.84;90.78;19860.59;5025860;28;20501;-66
2023/10/18 02:17:19;;;;;;;16.77;11.83;;;4.40;99.90;;;-141.84;91.04;20061.78;5017216;28;20236;-65
2023/10/18 02:19:48;;;;;;;16.77;12.33;;;4.40;99.90;;;-141.84;91.06;20143.09;5025051;28;20748;-66
2023/10/18 02:22:18;;;;;;;14.80;12.17;;;4.30;99.90;;;-141.84;91.48;20356.50;5025759;28;20229;-66
2023/10/18 02:24:49;;;;;;;15.77;13.00;;;4.40;99.90;;;-141.84;91.28;20382.94;5021206;28;20234;-65
2023/10/18 02:27:19;;;;;;;16.40;13.60;;;4.30;99.90;;;-141.84;91.28;20429.69;4998286;28;20229;-66
2023/10/18 02:29:51;;;;;;;16.97;12.87;;;4.30;99.90;;;-141.84;91.37;20382.94;5006234;28;20213;-65
2023/10/18 02:32:23;;;;;;;17.03;12.57;;;4.20;99.90;;;-141.84;91.68;20496.78;5005214;28;20234;-65
2023/10/18 02:34:52;;;;;;;16.70;13.67;;;4.20;99.90;;;-141.84;91.39;20645.16;5020870;28;20650;-65
2023/10/18 02:37:24;;;;;;;15.03;12.50;;;4.30;99.90;;;-141.84;90.94;20305.69;5017524;28;20235;-65
2023/10/18 02:39:52;;;;;;;15.83;12.77;;;4.30;99.90;;;-141.84;90.83;20065.84;5024812;28;20291;-65
2023/10/18 02:42:33;;;;;;;14.93;12.03;;;4.30;99.90;;;-141.84;90.84;19962.19;5025389;28;20236;-65
2023/10/18 02:45:04;;;;;;;15.37;12.17;;;4.30;99.90;;;-141.84;91.00;20010.97;5025080;28;20248;-66
2023/10/18 02:47:33;;;;;;;14.87;11.40;;;4.60;99.90;;;-141.84;90.89;20000.81;5024618;28;20370;-66
2023/10/18 02:50:03;;;;;;;17.17;12.03;;;4.20;99.90;;;-141.84;90.77;20053.66;5024667;28;20264;-66
2023/10/18 02:52:32;;;;;;;16.60;12.50;;;4.20;99.90;;;-141.84;90.76;20004.88;5025059;28;20233;-65
2023/10/18 02:55:01;;;;;;;16.93;12.53;;;4.20;99.90;;;-141.84;90.89;20039.44;5024370;28;20248;-65
2023/10/18 02:57:33;;;;;;;15.57;12.37;;;4.20;99.90;;;-141.84;90.76;20017.09;5018885;28;20231;-66
2023/10/18 03:00:10;;;;;;;14.60;11.20;;;4.20;99.90;;;-141.84;90.68;19994.72;5024483;28;20278;-65
2023/10/18 03:02:39;;;;;;;15.50;11.67;;;4.10;99.90;;;-141.84;90.71;19998.78;5024651;28;20325;-65
2023/10/18 03:05:08;;;;;;;15.70;12.33;;;4.10;99.90;;;-141.84;90.34;19862.63;5017813;28;20245;-64
2023/10/18 03:07:37;;;;;;;14.57;11.57;;;4.10;99.90;;;-141.84;90.06;19677.66;5024005;28;20320;-65
2023/10/18 03:10:12;;;;;;;15.10;12.40;;;4.20;99.90;;;-141.84;89.94;19610.59;5024710;28;20225;-65
2023/10/18 03:12:44;;;;;;;15.57;12.23;;;4.10;99.90;;;-141.84;90.06;19673.59;5021746;28;20712;-65
2023/10/18 03:15:17;;;;;;;14.53;11.63;;;4.00;99.90;;;-141.84;90.32;19718.31;5012306;28;20243;-65
2023/10/18 03:17:48;;;;;;;14.17;11.87;;;4.00;99.90;;;-141.84;90.32;19738.66;5024540;28;20216;-65
2023/10/18 03:20:21;;;;;;;14.17;12.00;;;4.00;99.90;;;-141.84;90.40;19795.53;5023815;28;20261;-66
2023/10/18 03:22:50;;;;;;;16.40;12.43;;;3.90;99.90;;;-141.84;90.25;19750.84;5023797;28;20319;-66
2023/10/18 03:25:26;;;;;;;13.63;11.63;;;3.90;99.90;;;-141.84;89.93;19671.56;5008037;28;20287;-65
2023/10/18 03:28:03;;;;;;;14.33;11.87;;;3.90;99.90;;;-141.84;88.69;19427.72;5004637;28;20233;-67
2023/10/18 03:30:44;;;;;;;13.97;11.30;;;4.00;99.90;;;-141.84;87.92;19263.09;5015252;28;20323;-66
2023/10/18 03:33:14;;;;;;;14.37;11.17;;;4.10;99.90;;;-141.84;87.98;19244.81;5015761;28;20209;-69
2023/10/18 03:35:43;;;;;;;13.10;10.83;;;4.00;99.90;;;-141.84;88.21;19277.34;5024448;28;20473;-65
2023/10/18 03:38:16;;;;;;;14.07;11.33;;;3.90;99.90;;;-141.84;88.50;19299.69;5023323;28;20256;-66
2023/10/18 03:40:48;;;;;;;15.37;12.00;;;3.90;99.90;;;-141.84;88.81;19340.31;5023869;28;20614;-66
2023/10/18 03:43:26;;;;;;;15.63;11.60;;;3.90;99.90;;;-141.84;88.93;19376.91;5016203;28;20240;-65
2023/10/18 03:46:13;;;;;;;17.13;11.90;;;3.80;99.90;;;-141.84;89.31;19446.00;5023798;28;20241;-65
2023/10/18 03:48:45;;;;;;;14.37;11.73;;;3.80;99.90;;;-141.84;89.52;19474.44;5023063;28;20312;-65
2023/10/18 03:51:19;;;;;;;16.17;12.20;;;3.80;99.90;;;-141.84;89.82;19553.72;5016483;28;20625;-65
2023/10/18 03:53:51;;;;;;;16.23;12.07;;;3.70;99.90;;;-141.84;89.73;19574.03;5023878;28;20275;-66
2023/10/18 03:56:21;;;;;;;16.90;12.23;;;3.70;99.90;;;-141.84;89.60;19561.84;5023236;28;20254;-66
2023/10/18 03:59:00;;;;;;;15.27;11.77;;;3.70;99.90;;;-141.84;89.68;19511.03;5021899;28;20240;-66
2023/10/18 04:01:39;;;;;;;14.63;11.83;;;3.70;99.90;;;-141.84;89.69;19561.84;4996061;28;20234;-66
2023/10/18 04:04:08;;;;;;;14.73;11.80;;;3.70;99.90;;;-141.84;89.59;19515.09;5015216;28;20736;-65
2023/10/18 04:06:37;;;;;;;16.93;11.87;;;3.70;99.90;;;-141.84;89.58;19521.19;5023091;28;20227;-66
2023/10/18 04:09:13;;;;;;;14.87;12.30;;;3.60;99.90;;;-141.84;89.36;19492.75;5017575;28;20285;-66
2023/10/18 04:11:42;;;;;;;14.13;12.17;;;3.50;99.90;;;-141.84;89.27;19439.91;5004294;28;20302;-66
2023/10/18 04:14:16;;;;;;;15.60;12.80;;;3.60;99.90;;;-141.84;89.36;19415.50;5009364;28;20259;-67
2023/10/18 04:16:47;;;;;;;16.10;11.80;;;3.60;99.90;;;-141.84;89.47;19462.25;5023206;28;20281;-68
2023/10/18 04:19:19;;;;;;;17.40;13.60;;;3.60;99.90;;;-141.84;89.61;19535.41;5014787;28;20716;-66
2023/10/18 04:21:53;;;;;;;15.27;12.73;;;3.50;99.90;;;-141.84;89.51;19474.44;5021216;28;20218;-66
2023/10/18 04:24:21;;;;;;;15.70;12.93;;;3.60;99.90;;;-141.84;89.13;19423.66;5022841;28;20228;-66
2023/10/18 04:26:50;;;;;;;14.30;12.30;;;3.60;99.90;;;-141.84;89.05;19399.25;5023135;28;20251;-66
2023/10/18 04:29:26;;;;;;;16.47;13.07;;;3.60;99.90;;;-141.84;88.91;19376.91;5015466;28;20319;-66
2023/10/18 04:31:56;;;;;;;17.80;12.63;;;3.60;99.90;;;-141.84;88.14;19317.97;5022846;28;20330;-65
2023/10/18 04:34:24;;;;;;;15.37;12.17;;;3.70;99.90;;;-141.84;87.81;19220.44;5022452;28;20264;-67
2023/10/18 04:36:55;;;;;;;15.33;13.00;;;3.60;99.90;;;-141.84;88.42;19281.41;5022289;28;20233;-66
2023/10/18 04:39:26;;;;;;;16.30;11.87;;;3.70;99.90;;;-141.84;88.20;19232.63;5014916;28;20307;-66
2023/10/18 04:41:55;;;;;;;15.77;12.07;;;3.60;99.90;;;-141.84;88.52;19271.25;5022734;28;20633;-64
2023/10/18 04:44:25;;;;;;;16.43;12.30;;;3.60;99.90;;;-141.84;88.63;19301.72;5023067;28;20240;-66
2023/10/18 04:46:59;;;;;;;16.03;12.43;;;3.60;99.90;;;-141.84;88.81;19344.41;5022857;28;20584;-66
2023/10/18 04:49:38;;;;;;;15.67;12.37;;;3.50;99.90;;;-141.84;88.86;19338.28;5013950;28;21350;-64
2023/10/18 04:52:07;;;;;;;13.93;11.83;;;3.50;99.90;;;-141.84;89.11;19366.75;5022651;28;20585;-66
2023/10/18 04:54:41;;;;;;;15.70;12.77;;;3.50;99.90;;;-141.84;89.26;19407.38;5021838;28;20223;-65
2023/10/18 04:57:12;;;;;;;14.13;12.40;;;3.50;99.90;;;-141.84;89.16;19417.56;5015531;28;20259;-65
2023/10/18 04:59:47;;;;;;;15.13;11.97;;;3.50;99.90;;;-141.84;88.74;19350.50;5024723;28;20214;-66
2023/10/18 05:02:17;;;;;;;15.50;12.17;;;3.60;99.90;;;-141.84;88.70;19295.63;5026512;28;20275;-66
2023/10/18 05:04:47;;;;;;;15.17;11.67;;;3.60;99.90;;;-141.84;89.01;19374.88;5026114;28;20252;-66
2023/10/18 05:07:14;;;;;;;17.53;12.03;;;3.50;99.90;;;-141.84;89.18;19407.38;5018516;28;20323;-65
2023/10/18 05:09:55;;;;;;;17.80;12.53;;;3.50;99.90;;;-141.84;89.52;19484.59;5026157;28;20650;-67
2023/10/18 05:12:29;;;;;;;16.30;13.33;;;3.60;99.90;;;-141.84;89.66;19476.47;5026552;28;20247;-65
2023/10/18 05:15:16;;;;;;;15.57;12.47;;;3.50;99.90;;;-141.84;89.57;19533.38;5026479;28;20292;-66
2023/10/18 05:17:44;;;;;;;16.03;11.87;;;3.50;99.90;;;-141.84;89.41;19446.00;5008305;28;20239;-66
2023/10/18 05:20:41;;;;;;;15.30;11.73;;;3.40;99.90;;;-141.84;89.00;19376.91;5006380;28;20232;-66
2023/10/18 05:23:10;;;;;;;14.77;11.37;;;3.40;99.90;;;-141.84;88.54;19301.72;5010897;28;20256;-66
2023/10/18 05:25:45;;;;;;;15.87;11.97;;;3.40;99.90;;;-141.84;88.12;19275.31;5025777;28;20763;-66
2023/10/18 05:28:17;;;;;;;14.80;12.23;;;3.30;99.90;;;-141.84;88.10;19265.13;5026101;28;20676;-66
2023/10/18 05:33:54;;;;;;;14.93;11.60;;;3.40;99.90;;;-141.84;86.80;19145.25;5025866;28;20587;-65
2023/10/18 05:36:35;;;;;;;13.63;11.60;;;;;;;-141.84;86.80;19122.91;5026376;28;20253;-68
2023/10/18 05:39:20;;;;;;;14.57;11.50;;;;;;;-141.84;86.98;19147.28;5025795;28;20234;-65
2023/10/18 05:41:50;;;;;;;14.90;11.67;;;;;;;-141.84;87.12;19129.00;5026116;28;20737;-64
2023/10/18 05:44:20;;;;;;;15.07;12.07;;;;;;;-141.84;87.14;19147.28;5025860;28;20336;-66
2023/10/18 05:46:51;;;;;;;16.13;11.57;;;;;;;-141.84;87.73;19171.66;5026134;28;20263;-66
2023/10/18 05:49:25;;;;;;;14.03;11.37;;;;;;;-141.84;87.88;19183.84;5017785;28;20234;-66
2023/10/18 05:52:15;;;;;;;14.23;11.63;;;;;;;-141.84;88.11;19206.22;5025768;28;20288;-66
2023/10/18 05:54:44;;;;;;;14.60;12.17;;;;;;;-141.84;87.88;19173.69;5025340;28;20793;-65
2023/10/18 05:57:20;;;;;;;15.40;11.93;;;3.20;99.90;;;-141.84;87.75;19204.19;5018386;28;20251;-65
2023/10/18 05:59:50;;;;;;;16.83;12.87;;;3.30;99.90;;;-141.84;87.57;19204.19;5026053;28;20218;-65
2023/10/18 06:02:23;;;;;;;13.73;11.43;;;3.30;99.90;;;-141.84;87.13;19155.41;5025294;28;20230;-66
2023/10/18 06:04:55;;;;;;;16.73;12.63;;;3.30;99.90;;;-141.84;87.05;19137.13;5025384;28;20252;-65
2023/10/18 06:07:24;;;;;;;13.40;11.47;;;3.40;99.90;;;-141.84;86.57;19106.66;5017531;28;20230;-66
2023/10/18 06:09:59;;;;;;;15.00;12.00;;;3.40;99.90;;;-141.84;86.27;19133.06;5024847;28;20236;-66
2023/10/18 06:12:30;;;;;;;17.60;12.03;;;3.40;99.90;;;-141.84;86.32;19066.00;5025667;28;20301;-66
2023/10/18 06:15:10;;;;;;;14.97;12.10;;;3.40;99.90;;;-141.84;85.96;19120.88;5025037;28;20212;-66
2023/10/18 06:17:52;;;;;;;17.27;12.60;;;3.50;99.90;;;-141.84;85.77;19049.75;5025578;28;20315;-66
2023/10/18 06:20:28;;;;;;;16.20;11.57;;;3.50;99.90;;;-141.84;85.13;19068.03;5005921;28;20728;-65
2023/10/18 06:23:09;;;;;;;14.80;11.67;;;3.60;99.90;;;-141.84;84.78;19070.06;5005422;28;20233;-66
2023/10/18 06:25:44;;;;;;;17.27;12.00;;;3.60;99.90;;;-141.84;84.07;19068.03;5021687;28;20240;-66
2023/10/18 06:28:19;;;;;;;16.63;11.33;;;3.60;99.90;;;-141.84;83.82;19053.81;5024749;28;20326;-65
2023/10/18 06:30:51;;;;;;;15.47;11.03;;;3.60;99.90;;;-141.84;83.16;19043.66;5024875;28;20319;-65
2023/10/18 06:33:21;;;;;;;17.03;11.07;;;3.70;99.90;;;-141.84;83.25;19000.97;5017908;28;20233;-67
2023/10/18 06:35:53;;;;;;;14.87;11.97;;;3.70;99.90;;;-141.84;83.06;19029.44;5025548;28;20267;-67
2023/10/18 06:38:23;;;;;;;15.40;11.83;;;3.80;99.90;;;-141.84;82.72;19041.63;5024820;28;20645;-65
2023/10/18 06:40:53;;;;;;;16.67;12.57;;;3.90;99.90;;;-141.84;82.88;19041.63;5022528;28;20710;-65
2023/10/18 06:43:36;;;;;;;16.23;11.50;;;3.90;99.90;;;-141.84;82.31;19027.41;5023577;28;20271;-70
2023/10/18 06:46:08;;;;;;;18.70;12.60;;;3.90;99.90;;;-141.84;82.33;19031.47;5005182;28;20759;-66
2023/10/18 06:48:38;;;;;;;16.80;12.77;;;4.00;99.90;;;-141.84;82.33;19031.47;5005960;28;20227;-68
2023/10/18 06:51:11;;;;;;;15.13;11.97;;;4.00;99.90;;;-141.84;81.87;19041.63;5020770;28;20262;-61
2023/10/18 06:53:41;;;;;;;14.70;11.67;;;4.00;99.90;;;-141.84;82.05;19007.06;5025492;28;20392;-62
2023/10/18 06:56:19;;;;;;;20.27;13.63;;;4.10;99.90;;;-141.84;82.28;19047.72;5024042;28;20274;-62
2023/10/18 06:58:48;;;;;;;16.73;13.23;;;4.20;99.90;;;-141.84;81.24;19051.78;5024664;28;20234;-62
2023/10/18 07:01:20;;;;;;;15.87;12.20;;;4.30;99.90;;;-141.84;81.68;19049.75;5017262;28;20264;-61
2023/10/18 07:03:50;;;;;;;15.40;12.20;;;4.40;99.90;;;-141.84;81.86;19070.06;5014686;28;20750;-62
2023/10/18 07:06:25;;;;;;;17.67;11.70;;;4.50;99.90;;;-141.84;81.98;19092.41;5024571;28;20229;-65
2023/10/18 07:08:53;;;;;;;14.93;12.23;;;4.60;99.90;;;-141.84;82.42;19112.75;5025191;28;20278;-62
2023/10/18 07:11:23;;;;;;;15.67;12.43;;;4.70;99.90;;;-141.84;81.45;19096.47;5016700;28;20692;-60
2023/10/18 07:14:12;;;;;;;15.00;12.43;;;4.80;99.90;;;-141.84;81.87;19131.03;5024149;28;20700;-62
2023/10/18 07:16:42;;;;;;;18.23;12.93;;;4.90;99.90;;;-141.84;81.26;19139.16;5004631;28;20241;-62
2023/10/18 07:19:29;;;;;;;17.70;13.70;;;5.00;99.90;;;-141.84;80.78;19080.22;4996956;28;20230;-62
2023/10/18 07:21:58;;;;;;;21.40;13.17;;;5.20;99.90;;;-141.84;80.18;19149.31;5020755;28;20248;-62
2023/10/18 07:24:34;;;;;;;15.37;12.33;;;5.40;99.90;;;-141.84;78.38;19143.22;5024107;28;20287;-62
2023/10/18 07:27:04;;;;;;;19.80;12.60;;;5.50;99.90;;;-141.84;77.44;19179.78;5023686;28;20248;-62
2023/10/18 07:29:36;;;;;;;15.03;12.03;;;5.60;99.90;;;-141.84;76.77;19183.84;5022102;28;20495;-62
2023/10/18 07:32:07;;;;;;;17.00;12.47;;;5.70;99.90;;;-141.84;76.64;19198.09;5024129;28;20605;-62
2023/10/18 07:34:37;;;;;;;17.73;12.60;;;5.90;99.90;;;-141.84;74.96;19183.84;5024013;28;20575;-62
2023/10/18 07:37:19;;;;;;;15.87;11.40;;;5.90;99.90;;;-141.84;74.52;19224.50;5021288;28;20605;-61
2023/10/18 07:39:50;;;;;;;16.53;11.63;;;6.10;99.90;;;-141.84;73.68;19230.59;5016582;28;20313;-62
2023/10/18 07:42:21;;;;;;;16.13;11.63;;;6.10;99.90;;;-141.84;74.17;19208.25;5021639;28;20229;-62
2023/10/18 07:44:52;;;;;;;16.03;11.53;;;6.10;99.90;;;-141.84;73.08;19192.00;5023511;28;20681;-61
2023/10/18 07:47:25;;;;;;;16.00;12.13;;;6.20;99.90;;;-141.84;72.57;19261.06;5015993;28;20230;-62
2023/10/18 07:49:58;;;;;;;17.13;11.50;;;6.30;99.90;;;-141.84;72.90;19224.50;5021262;28;20244;-61
2023/10/18 07:52:26;;;;;;;15.07;11.27;;;6.40;99.90;;;-141.84;71.75;19271.25;5019517;28;20699;-62
2023/10/18 07:54:55;;;;;;;20.30;12.20;;;6.50;99.90;;;-141.84;72.22;19293.59;5021430;28;20229;-62
2023/10/18 07:57:33;;;;;;;15.70;10.80;;;6.60;99.90;;;-141.84;71.64;19283.44;5016496;28;20269;-62
2023/10/18 08:02:56;;;;;;;18.37;11.67;;;6.80;99.90;;;-141.84;70.80;19297.66;5073471;27;20690;-61
2023/10/18 08:05:30;;;;;;;18.47;11.13;;;6.90;99.90;;;-141.84;69.72;19311.88;5002331;28;20575;-62
2023/10/18 08:08:03;;;;;;;14.50;10.43;;;7.00;99.90;;;-141.84;69.87;19301.72;5017082;28;20283;-62
2023/10/18 08:10:33;;;;;;;15.00;11.47;;;7.00;99.90;;;-141.84;69.97;19309.84;5019502;28;20233;-61
2023/10/18 08:13:07;;;;;;;14.47;10.60;;;7.00;99.90;;;-141.84;69.80;19338.28;5020145;28;20230;-61
2023/10/18 08:15:36;;;;;;;17.03;10.43;;;7.10;99.90;;;-141.84;69.96;19317.97;5020061;28;20240;-62
2023/10/18 08:18:15;;;;;;;13.40;10.40;;;7.10;99.90;;;-141.84;69.83;19336.25;5018921;28;20559;-62
2023/10/18 08:21:06;;;;;;;14.50;10.37;;;7.20;99.90;;;-141.84;69.67;19378.94;5020566;28;20201;-61
2023/10/18 08:23:38;;;;;;;11.37;9.33;;;7.20;99.90;;;-141.84;69.17;19370.81;5019217;28;20276;-61
2023/10/18 08:26:06;;;;;;;14.50;10.37;;;7.30;99.90;;;-141.84;68.91;19378.94;5019655;28;20229;-61
2023/10/18 08:28:46;;;;;;;12.90;11.33;;;7.30;99.90;;;-141.84;69.16;19397.22;5020001;28;20226;-62
2023/10/18 08:31:26;;;;;;;15.10;10.87;;;7.40;99.90;;;-141.84;68.87;19389.09;5011556;28;20232;-62
2023/10/18 08:33:57;;;;;;;20.07;11.97;;;7.50;99.90;;;-141.84;69.32;19397.22;5019503;28;20233;-62
2023/10/18 08:36:31;;;;;;;12.27;10.70;;;7.50;99.90;;;-141.84;69.59;19411.44;5019338;28;20309;-61
2023/10/18 08:39:01;;;;;;;14.30;11.83;;;7.50;99.90;;;-141.84;68.92;19443.97;5019860;28;20302;-61
2023/10/18 08:41:36;;;;;;;15.53;11.23;;;7.60;99.90;;;-141.84;68.50;19429.75;5034123;28;20232;-62
2023/10/18 08:44:15;;;;;;;14.73;11.53;;;7.70;99.90;;;-141.84;69.49;19419.59;5059124;28;20225;-61
2023/10/18 08:46:52;;;;;;;14.70;10.57;;;7.70;99.90;;;-141.84;69.36;19460.22;5027639;28;20237;-61
2023/10/18 08:49:24;;;;;;;14.13;10.70;;;7.70;99.90;;;-141.84;68.43;19452.09;5014109;28;20226;-61
2023/10/18 08:52:04;;;;;;;15.30;11.17;;;7.90;99.90;;;-141.84;68.20;19486.66;5024063;28;20234;-62
2023/10/18 08:54:36;;;;;;;12.03;10.00;;;7.90;99.90;;;-141.84;69.33;19478.50;5021855;28;20229;-64
2023/10/18 08:57:08;;;;;;;14.40;9.77;;;8.00;99.90;;;-141.84;67.84;19482.56;5039587;28;20298;-65
2023/10/18 08:59:46;;;;;;;14.13;10.07;;;8.10;99.90;;;-141.84;67.85;19529.31;5043080;28;20204;-66
2023/10/18 09:02:19;;;;;;;12.43;9.73;;;8.30;99.90;;;-141.84;67.65;19502.91;5036325;28;20655;-66
2023/10/18 09:04:52;;;;;;;13.80;9.90;;;8.40;99.90;;;-141.84;66.82;19567.94;5043418;28;20642;-63
2023/10/18 09:10:32;;;;;;;11.80;9.67;;;8.70;99.90;;;-141.84;65.84;19580.13;5027760;28;20202;-67
2023/10/18 09:13:29;;;;;;;11.97;9.10;;;8.90;99.90;;;-141.84;65.58;19598.41;5035684;28;20284;-65
2023/10/18 09:16:01;;;;;;;11.57;9.00;;;8.90;99.90;;;-141.84;65.01;19643.13;5034219;28;20202;-67
2023/10/18 09:18:31;;;;;;;12.77;9.67;;;9.10;99.90;;;-141.84;64.85;19614.66;5020980;28;20201;-67
2023/10/18 09:21:07;;;;;;;12.60;9.07;;;9.20;99.90;;;-141.84;65.10;19653.28;5025476;28;20263;-68
2023/10/18 09:23:36;;;;;;;11.27;8.70;;;9.30;99.90;;;-141.84;64.38;19649.22;5025721;28;20235;-60
2023/10/18 09:26:10;;;;;;;10.30;8.43;;;9.40;99.90;;;-141.84;63.97;19673.59;5026121;28;20226;-60
2023/10/18 09:28:42;;;;;;;10.03;8.93;;;9.40;99.90;;;-141.84;63.57;19695.97;5042972;28;20243;-60
2023/10/18 09:31:18;;;;;;;10.90;8.30;;;9.60;99.90;;;-141.84;64.15;19710.19;5034568;28;20218;-61
2023/10/18 09:33:51;;;;;;;12.83;9.77;;;9.70;99.90;;;-141.84;62.79;19726.44;5034450;28;20355;-61
2023/10/18 09:36:23;;;;;;;8.97;8.07;;;9.80;99.90;;;-141.84;63.17;19748.81;5040062;28;20247;-61
2023/10/18 09:38:54;;;;;;;10.10;8.20;;;9.90;99.90;;;-141.84;62.79;19744.75;5036961;28;20330;-60
2023/10/18 09:41:26;;;;;;;11.10;8.47;;;10.00;99.90;;;-141.84;62.20;19763.03;5043093;28;20225;-60
2023/10/18 09:44:00;;;;;;;10.87;8.97;;;10.00;99.90;;;-141.84;62.18;19779.28;5036286;28;20228;-63
2023/10/18 09:46:30;;;;;;;10.10;8.80;;;10.00;99.90;;;-141.84;62.30;19756.94;5044017;28;20282;-61
2023/10/18 09:49:00;;;;;;;10.40;8.73;;;10.10;99.90;;;-141.84;62.25;19775.22;5043012;28;20232;-62
2023/10/18 09:51:33;;;;;;;11.87;8.93;;;10.20;99.90;;;-141.84;62.46;19746.78;5043644;28;20289;-61
2023/10/18 09:54:07;;;;;;;11.37;8.80;;;10.20;99.90;;;-141.84;62.01;19801.66;5034194;28;20253;-61
2023/10/18 09:56:38;;;;;;;10.13;8.77;;;10.30;99.90;;;-141.84;62.08;19791.47;5038647;28;20225;-61
2023/10/18 09:59:11;;;;;;;9.67;7.90;;;10.40;99.90;;;-141.84;61.37;19828.06;5043619;28;20237;-60
2023/10/18 10:01:59;;;;;;;10.03;8.43;;;10.50;99.90;;;-141.84;61.11;19870.75;5040129;28;20233;-61
2023/10/18 10:04:33;;;;;;;10.63;8.10;;;10.50;99.90;;;-141.84;60.51;19880.91;5040322;28;20732;-60
2023/10/18 10:09:53;;;;;;;8.53;7.63;;;10.60;99.90;;;-141.84;61.55;19813.84;5042353;28;20205;-60
2023/10/18 10:12:27;;;;;;;11.63;8.17;;;10.50;99.90;;;-141.84;61.72;19799.63;5040174;28;20689;-60
2023/10/18 10:14:58;;;;;;;11.10;8.13;;;10.40;99.90;;;-141.84;61.87;19826.03;5043325;28;20279;-60
2023/10/18 10:17:29;;;;;;;9.40;8.40;;;10.50;99.90;;;-141.84;61.92;19809.78;5042810;28;20726;-59
2023/10/18 10:20:10;;;;;;;10.83;8.07;;;10.50;99.90;;;-141.84;61.78;19834.16;5031944;28;20644;-61
2023/10/18 10:22:43;;;;;;;9.37;8.13;;;10.60;99.90;;;-141.84;62.32;19803.69;5042698;28;20283;-61
2023/10/18 10:25:19;;;;;;;9.00;7.60;;;10.60;99.90;;;-141.84;62.11;19842.28;5036206;28;20263;-60
2023/10/18 10:28:15;;;;;;;10.80;7.80;;;10.70;99.90;;;-141.84;61.62;19868.72;5034934;28;20224;-61
2023/10/18 10:30:43;;;;;;;9.13;7.80;;;10.80;99.90;;;-141.84;60.92;19826.03;5032098;28;20205;-61
2023/10/18 10:33:13;;;;;;;9.97;7.90;;;10.80;99.90;;;-141.84;60.80;19874.81;5042933;28;20208;-60
2023/10/18 10:35:47;;;;;;;8.77;7.87;;;10.90;99.90;;;-141.84;61.05;19874.81;5042060;28;20712;-62
2023/10/18 10:38:20;;;;;;;10.53;8.20;;;10.90;99.90;;;-141.84;60.38;19907.31;5030856;28;20236;-61